sensor_id;sensor_type;location;lat;lon;timestamp;P1;durP1;ratioP1;P2;durP2;ratioP2
56999;SDS011;42891;50.006;21.964;2024-03-08T00:01:14;32.17;;;20.33;;
56999;SDS011;42891;50.006;21.964;2024-03-08T00:05:16;33.45;;;20.90;;
56999;SDS011;42891;50.006;21.964;2024-03-08T00:09:18;34.05;;;20.13;;
56999;SDS011;42891;50.006;21.964;2024-03-08T00:13:18;31.60;;;19.75;;
56999;SDS011;42891;50.006;21.964;2024-03-08T00:17:18;33.25;;;20.27;;
56999;SDS011;42891;50.006;21.964;2024-03-08T00:21:19;32.78;;;19.52;;
56999;SDS011;42891;50.006;21.964;2024-03-08T00:25:19;36.38;;;20.25;;
56999;SDS011;42891;50.006;21.964;2024-03-08T00:29:20;30.40;;;18.65;;
56999;SDS011;42891;50.006;21.964;2024-03-08T00:33:20;31.00;;;19.02;;
56999;SDS011;42891;50.006;21.964;2024-03-08T00:37:21;32.95;;;20.25;;
56999;SDS011;42891;50.006;21.964;2024-03-08T00:41:21;33.63;;;18.45;;
56999;SDS011;42891;50.006;21.964;2024-03-08T00:45:22;32.67;;;17.77;;
56999;SDS011;42891;50.006;21.964;2024-03-08T00:49:23;36.15;;;20.25;;
56999;SDS011;42891;50.006;21.964;2024-03-08T00:53:23;35.73;;;20.40;;
56999;SDS011;42891;50.006;21.964;2024-03-08T00:57:24;37.78;;;20.92;;
56999;SDS011;42891;50.006;21.964;2024-03-08T01:01:24;33.15;;;20.02;;
56999;SDS011;42891;50.006;21.964;2024-03-08T01:05:24;35.17;;;20.45;;
56999;SDS011;42891;50.006;21.964;2024-03-08T01:09:25;32.87;;;19.13;;
56999;SDS011;42891;50.006;21.964;2024-03-08T01:13:26;32.42;;;19.73;;
56999;SDS011;42891;50.006;21.964;2024-03-08T01:17:27;34.28;;;19.85;;
56999;SDS011;42891;50.006;21.964;2024-03-08T01:21:27;31.50;;;19.40;;
56999;SDS011;42891;50.006;21.964;2024-03-08T01:25:27;33.97;;;19.55;;
56999;SDS011;42891;50.006;21.964;2024-03-08T01:29:28;32.13;;;19.23;;
56999;SDS011;42891;50.006;21.964;2024-03-08T01:33:29;35.35;;;19.83;;
56999;SDS011;42891;50.006;21.964;2024-03-08T01:37:31;34.22;;;20.52;;
56999;SDS011;42891;50.006;21.964;2024-03-08T01:41:31;34.40;;;19.80;;
56999;SDS011;42891;50.006;21.964;2024-03-08T01:45:32;35.87;;;19.90;;
56999;SDS011;42891;50.006;21.964;2024-03-08T01:49:34;38.78;;;21.23;;
56999;SDS011;42891;50.006;21.964;2024-03-08T01:53:34;35.60;;;20.23;;
56999;SDS011;42891;50.006;21.964;2024-03-08T01:57:35;31.73;;;19.95;;
56999;SDS011;42891;50.006;21.964;2024-03-08T02:01:37;37.00;;;20.42;;
56999;SDS011;42891;50.006;21.964;2024-03-08T02:05:38;32.97;;;19.15;;
56999;SDS011;42891;50.006;21.964;2024-03-08T02:09:40;36.65;;;20.20;;
56999;SDS011;42891;50.006;21.964;2024-03-08T02:13:41;35.08;;;20.67;;
56999;SDS011;42891;50.006;21.964;2024-03-08T02:17:41;37.75;;;20.50;;
56999;SDS011;42891;50.006;21.964;2024-03-08T02:21:43;36.45;;;20.20;;
56999;SDS011;42891;50.006;21.964;2024-03-08T02:25:43;37.05;;;20.80;;
56999;SDS011;42891;50.006;21.964;2024-03-08T02:29:44;34.05;;;19.95;;
56999;SDS011;42891;50.006;21.964;2024-03-08T02:33:44;36.58;;;19.88;;
56999;SDS011;42891;50.006;21.964;2024-03-08T02:37:47;36.30;;;19.75;;
56999;SDS011;42891;50.006;21.964;2024-03-08T02:41:47;39.20;;;22.63;;
56999;SDS011;42891;50.006;21.964;2024-03-08T02:45:48;37.58;;;20.40;;
56999;SDS011;42891;50.006;21.964;2024-03-08T02:49:48;37.97;;;21.48;;
56999;SDS011;42891;50.006;21.964;2024-03-08T02:53:50;38.35;;;20.33;;
56999;SDS011;42891;50.006;21.964;2024-03-08T02:57:52;39.35;;;22.00;;
56999;SDS011;42891;50.006;21.964;2024-03-08T03:01:54;41.33;;;21.75;;
56999;SDS011;42891;50.006;21.964;2024-03-08T03:05:54;38.13;;;20.98;;
56999;SDS011;42891;50.006;21.964;2024-03-08T03:09:57;34.47;;;19.15;;
56999;SDS011;42891;50.006;21.964;2024-03-08T03:13:58;29.97;;;18.70;;
56999;SDS011;42891;50.006;21.964;2024-03-08T03:17:58;33.42;;;19.60;;
56999;SDS011;42891;50.006;21.964;2024-03-08T03:21:58;35.05;;;20.52;;
56999;SDS011;42891;50.006;21.964;2024-03-08T03:25:59;36.10;;;19.65;;
56999;SDS011;42891;50.006;21.964;2024-03-08T03:30:00;38.00;;;20.60;;
56999;SDS011;42891;50.006;21.964;2024-03-08T03:34:20;36.65;;;20.27;;
56999;SDS011;42891;50.006;21.964;2024-03-08T03:38:20;34.22;;;19.83;;
56999;SDS011;42891;50.006;21.964;2024-03-08T03:42:23;35.03;;;20.80;;
56999;SDS011;42891;50.006;21.964;2024-03-08T03:46:24;36.17;;;20.17;;
56999;SDS011;42891;50.006;21.964;2024-03-08T03:50:24;37.88;;;21.15;;
56999;SDS011;42891;50.006;21.964;2024-03-08T03:54:24;37.97;;;20.73;;
56999;SDS011;42891;50.006;21.964;2024-03-08T03:58:25;35.87;;;20.90;;
56999;SDS011;42891;50.006;21.964;2024-03-08T04:02:27;37.20;;;20.88;;
56999;SDS011;42891;50.006;21.964;2024-03-08T04:06:27;38.53;;;20.42;;
56999;SDS011;42891;50.006;21.964;2024-03-08T04:10:28;35.00;;;20.50;;
56999;SDS011;42891;50.006;21.964;2024-03-08T04:14:28;41.37;;;20.97;;
56999;SDS011;42891;50.006;21.964;2024-03-08T04:18:29;40.40;;;22.73;;
56999;SDS011;42891;50.006;21.964;2024-03-08T04:22:29;37.72;;;21.45;;
56999;SDS011;42891;50.006;21.964;2024-03-08T04:26:29;37.25;;;21.60;;
56999;SDS011;42891;50.006;21.964;2024-03-08T04:30:30;39.40;;;20.80;;
56999;SDS011;42891;50.006;21.964;2024-03-08T04:34:30;39.30;;;21.60;;
56999;SDS011;42891;50.006;21.964;2024-03-08T04:38:31;39.47;;;21.85;;
56999;SDS011;42891;50.006;21.964;2024-03-08T04:42:31;36.13;;;20.98;;
56999;SDS011;42891;50.006;21.964;2024-03-08T04:46:32;39.92;;;22.13;;
56999;SDS011;42891;50.006;21.964;2024-03-08T04:50:34;38.05;;;20.67;;
56999;SDS011;42891;50.006;21.964;2024-03-08T04:54:35;37.42;;;21.50;;
56999;SDS011;42891;50.006;21.964;2024-03-08T04:58:35;38.58;;;22.80;;
56999;SDS011;42891;50.006;21.964;2024-03-08T05:02:36;35.20;;;21.33;;
56999;SDS011;42891;50.006;21.964;2024-03-08T05:06:38;45.13;;;22.90;;
56999;SDS011;42891;50.006;21.964;2024-03-08T05:10:39;37.55;;;22.25;;
56999;SDS011;42891;50.006;21.964;2024-03-08T05:14:39;36.10;;;21.67;;
56999;SDS011;42891;50.006;21.964;2024-03-08T05:18:39;43.38;;;22.98;;
56999;SDS011;42891;50.006;21.964;2024-03-08T05:22:40;36.20;;;21.83;;
56999;SDS011;42891;50.006;21.964;2024-03-08T05:26:40;40.08;;;22.27;;
56999;SDS011;42891;50.006;21.964;2024-03-08T05:30:41;39.15;;;21.25;;
56999;SDS011;42891;50.006;21.964;2024-03-08T05:34:42;39.23;;;21.80;;
56999;SDS011;42891;50.006;21.964;2024-03-08T05:38:43;41.03;;;21.08;;
56999;SDS011;42891;50.006;21.964;2024-03-08T05:42:43;39.25;;;21.85;;
56999;SDS011;42891;50.006;21.964;2024-03-08T05:46:44;38.47;;;21.97;;
56999;SDS011;42891;50.006;21.964;2024-03-08T05:50:44;40.63;;;21.83;;
56999;SDS011;42891;50.006;21.964;2024-03-08T05:54:44;42.45;;;22.13;;
56999;SDS011;42891;50.006;21.964;2024-03-08T05:58:46;38.25;;;21.73;;
56999;SDS011;42891;50.006;21.964;2024-03-08T06:02:46;40.20;;;22.40;;
56999;SDS011;42891;50.006;21.964;2024-03-08T06:06:46;42.07;;;23.43;;
56999;SDS011;42891;50.006;21.964;2024-03-08T06:10:46;39.13;;;22.55;;
56999;SDS011;42891;50.006;21.964;2024-03-08T06:18:52;40.25;;;21.02;;
56999;SDS011;42891;50.006;21.964;2024-03-08T06:22:52;43.10;;;23.13;;
56999;SDS011;42891;50.006;21.964;2024-03-08T06:26:53;48.70;;;23.83;;
56999;SDS011;42891;50.006;21.964;2024-03-08T06:30:54;40.70;;;23.92;;
56999;SDS011;42891;50.006;21.964;2024-03-08T06:34:54;41.72;;;23.45;;
56999;SDS011;42891;50.006;21.964;2024-03-08T06:38:54;44.65;;;24.23;;
56999;SDS011;42891;50.006;21.964;2024-03-08T06:42:56;43.55;;;24.35;;
56999;SDS011;42891;50.006;21.964;2024-03-08T06:46:56;39.08;;;22.40;;
56999;SDS011;42891;50.006;21.964;2024-03-08T06:50:56;43.80;;;24.17;;
56999;SDS011;42891;50.006;21.964;2024-03-08T06:54:57;42.20;;;23.10;;
56999;SDS011;42891;50.006;21.964;2024-03-08T06:58:57;39.17;;;23.10;;
56999;SDS011;42891;50.006;21.964;2024-03-08T07:02:58;43.45;;;24.70;;
56999;SDS011;42891;50.006;21.964;2024-03-08T07:07:00;40.38;;;23.17;;
56999;SDS011;42891;50.006;21.964;2024-03-08T07:11:02;41.20;;;23.08;;
56999;SDS011;42891;50.006;21.964;2024-03-08T07:15:05;42.13;;;23.42;;
56999;SDS011;42891;50.006;21.964;2024-03-08T07:19:05;41.17;;;23.33;;
56999;SDS011;42891;50.006;21.964;2024-03-08T07:23:06;51.92;;;24.58;;
56999;SDS011;42891;50.006;21.964;2024-03-08T07:27:06;42.85;;;22.52;;
56999;SDS011;42891;50.006;21.964;2024-03-08T07:31:06;38.75;;;23.33;;
56999;SDS011;42891;50.006;21.964;2024-03-08T07:35:25;47.25;;;25.50;;
56999;SDS011;42891;50.006;21.964;2024-03-08T07:39:26;45.10;;;24.10;;
56999;SDS011;42891;50.006;21.964;2024-03-08T07:43:26;41.95;;;24.17;;
56999;SDS011;42891;50.006;21.964;2024-03-08T07:47:27;46.17;;;24.33;;
56999;SDS011;42891;50.006;21.964;2024-03-08T07:51:27;47.20;;;24.98;;
56999;SDS011;42891;50.006;21.964;2024-03-08T07:55:27;44.33;;;23.47;;
56999;SDS011;42891;50.006;21.964;2024-03-08T07:59:28;44.03;;;25.65;;
56999;SDS011;42891;50.006;21.964;2024-03-08T08:03:30;46.00;;;24.98;;
56999;SDS011;42891;50.006;21.964;2024-03-08T08:07:31;46.90;;;25.00;;
56999;SDS011;42891;50.006;21.964;2024-03-08T08:11:31;43.23;;;24.97;;
56999;SDS011;42891;50.006;21.964;2024-03-08T08:15:32;45.92;;;24.10;;
56999;SDS011;42891;50.006;21.964;2024-03-08T08:19:34;49.60;;;25.60;;
56999;SDS011;42891;50.006;21.964;2024-03-08T08:23:35;48.75;;;26.45;;
56999;SDS011;42891;50.006;21.964;2024-03-08T08:27:35;44.05;;;24.65;;
56999;SDS011;42891;50.006;21.964;2024-03-08T08:31:39;45.22;;;25.65;;
56999;SDS011;42891;50.006;21.964;2024-03-08T08:35:40;54.33;;;27.43;;
56999;SDS011;42891;50.006;21.964;2024-03-08T08:39:40;38.10;;;21.00;;
56999;SDS011;42891;50.006;21.964;2024-03-08T08:43:40;40.13;;;23.08;;
56999;SDS011;42891;50.006;21.964;2024-03-08T08:47:44;41.33;;;22.27;;
56999;SDS011;42891;50.006;21.964;2024-03-08T08:51:48;30.20;;;18.50;;
56999;SDS011;42891;50.006;21.964;2024-03-08T08:55:49;35.43;;;20.50;;
56999;SDS011;42891;50.006;21.964;2024-03-08T08:59:50;38.40;;;21.35;;
56999;SDS011;42891;50.006;21.964;2024-03-08T09:03:50;35.15;;;19.60;;
56999;SDS011;42891;50.006;21.964;2024-03-08T09:07:52;33.20;;;19.83;;
56999;SDS011;42891;50.006;21.964;2024-03-08T09:11:53;29.80;;;18.25;;
56999;SDS011;42891;50.006;21.964;2024-03-08T09:15:54;27.92;;;17.05;;
56999;SDS011;42891;50.006;21.964;2024-03-08T09:19:54;29.85;;;16.95;;
56999;SDS011;42891;50.006;21.964;2024-03-08T09:23:55;31.08;;;17.70;;
56999;SDS011;42891;50.006;21.964;2024-03-08T09:27:55;31.38;;;16.77;;
56999;SDS011;42891;50.006;21.964;2024-03-08T09:31:55;27.88;;;16.40;;
56999;SDS011;42891;50.006;21.964;2024-03-08T09:35:56;28.95;;;17.17;;
56999;SDS011;42891;50.006;21.964;2024-03-08T09:39:57;28.65;;;16.48;;
56999;SDS011;42891;50.006;21.964;2024-03-08T09:43:59;31.13;;;17.83;;
56999;SDS011;42891;50.006;21.964;2024-03-08T09:47:59;29.90;;;17.85;;
56999;SDS011;42891;50.006;21.964;2024-03-08T09:52:01;30.13;;;17.27;;
56999;SDS011;42891;50.006;21.964;2024-03-08T09:56:05;30.75;;;17.13;;
56999;SDS011;42891;50.006;21.964;2024-03-08T10:00:06;29.77;;;17.58;;
56999;SDS011;42891;50.006;21.964;2024-03-08T10:04:23;27.77;;;16.77;;
56999;SDS011;42891;50.006;21.964;2024-03-08T10:08:23;29.02;;;16.80;;
56999;SDS011;42891;50.006;21.964;2024-03-08T10:12:23;29.83;;;17.33;;
56999;SDS011;42891;50.006;21.964;2024-03-08T10:16:25;33.80;;;18.33;;
56999;SDS011;42891;50.006;21.964;2024-03-08T10:20:27;30.30;;;17.98;;
56999;SDS011;42891;50.006;21.964;2024-03-08T10:24:27;31.87;;;17.30;;
56999;SDS011;42891;50.006;21.964;2024-03-08T10:28:27;34.03;;;19.40;;
56999;SDS011;42891;50.006;21.964;2024-03-08T10:32:28;27.13;;;17.40;;
56999;SDS011;42891;50.006;21.964;2024-03-08T10:36:28;27.87;;;16.30;;
56999;SDS011;42891;50.006;21.964;2024-03-08T10:40:29;26.35;;;16.15;;
56999;SDS011;42891;50.006;21.964;2024-03-08T10:52:31;30.27;;;17.58;;
56999;SDS011;42891;50.006;21.964;2024-03-08T10:56:32;29.08;;;17.50;;
56999;SDS011;42891;50.006;21.964;2024-03-08T11:00:32;31.80;;;17.80;;
56999;SDS011;42891;50.006;21.964;2024-03-08T11:04:32;27.35;;;17.45;;
56999;SDS011;42891;50.006;21.964;2024-03-08T11:08:33;29.02;;;18.15;;
56999;SDS011;42891;50.006;21.964;2024-03-08T11:12:36;28.92;;;18.15;;
56999;SDS011;42891;50.006;21.964;2024-03-08T11:16:37;27.92;;;17.70;;
56999;SDS011;42891;50.006;21.964;2024-03-08T11:20:40;31.27;;;17.30;;
56999;SDS011;42891;50.006;21.964;2024-03-08T11:24:41;31.02;;;18.27;;
56999;SDS011;42891;50.006;21.964;2024-03-08T11:28:41;29.92;;;17.33;;
56999;SDS011;42891;50.006;21.964;2024-03-08T11:32:45;30.98;;;17.65;;
56999;SDS011;42891;50.006;21.964;2024-03-08T11:36:48;32.25;;;19.40;;
56999;SDS011;42891;50.006;21.964;2024-03-08T11:40:50;28.77;;;17.40;;
56999;SDS011;42891;50.006;21.964;2024-03-08T11:44:50;29.65;;;18.25;;
56999;SDS011;42891;50.006;21.964;2024-03-08T11:48:54;31.80;;;18.83;;
56999;SDS011;42891;50.006;21.964;2024-03-08T11:53:05;33.53;;;19.25;;
56999;SDS011;42891;50.006;21.964;2024-03-08T11:57:05;30.20;;;17.75;;
56999;SDS011;42891;50.006;21.964;2024-03-08T12:01:06;29.63;;;18.40;;
56999;SDS011;42891;50.006;21.964;2024-03-08T12:05:16;29.27;;;18.33;;
56999;SDS011;42891;50.006;21.964;2024-03-08T12:09:19;34.15;;;19.08;;
56999;SDS011;42891;50.006;21.964;2024-03-08T12:13:22;29.50;;;18.02;;
56999;SDS011;42891;50.006;21.964;2024-03-08T12:17:23;31.25;;;18.90;;
56999;SDS011;42891;50.006;21.964;2024-03-08T12:21:25;31.25;;;18.88;;
56999;SDS011;42891;50.006;21.964;2024-03-08T12:25:32;28.80;;;16.83;;
56999;SDS011;42891;50.006;21.964;2024-03-08T12:29:37;27.02;;;17.48;;
56999;SDS011;42891;50.006;21.964;2024-03-08T12:33:52;35.20;;;18.08;;
56999;SDS011;42891;50.006;21.964;2024-03-08T12:37:54;31.48;;;18.73;;
56999;SDS011;42891;50.006;21.964;2024-03-08T12:41:56;26.88;;;17.27;;
56999;SDS011;42891;50.006;21.964;2024-03-08T12:46:02;28.40;;;16.92;;
56999;SDS011;42891;50.006;21.964;2024-03-08T12:50:04;28.00;;;17.25;;
56999;SDS011;42891;50.006;21.964;2024-03-08T12:54:05;28.27;;;17.75;;
56999;SDS011;42891;50.006;21.964;2024-03-08T12:58:07;27.58;;;17.17;;
56999;SDS011;42891;50.006;21.964;2024-03-08T13:02:07;28.73;;;17.70;;
56999;SDS011;42891;50.006;21.964;2024-03-08T13:06:11;27.58;;;17.15;;
56999;SDS011;42891;50.006;21.964;2024-03-08T13:10:12;27.47;;;17.47;;
56999;SDS011;42891;50.006;21.964;2024-03-08T13:14:14;26.20;;;17.52;;
56999;SDS011;42891;50.006;21.964;2024-03-08T13:18:14;25.83;;;17.92;;
56999;SDS011;42891;50.006;21.964;2024-03-08T13:22:15;24.17;;;16.48;;
56999;SDS011;42891;50.006;21.964;2024-03-08T13:26:17;26.02;;;16.95;;
56999;SDS011;42891;50.006;21.964;2024-03-08T13:30:17;24.27;;;17.25;;
56999;SDS011;42891;50.006;21.964;2024-03-08T13:34:18;26.23;;;18.65;;
56999;SDS011;42891;50.006;21.964;2024-03-08T13:38:18;27.15;;;18.42;;
56999;SDS011;42891;50.006;21.964;2024-03-08T13:42:20;26.65;;;17.92;;
56999;SDS011;42891;50.006;21.964;2024-03-08T13:46:20;25.05;;;19.00;;
56999;SDS011;42891;50.006;21.964;2024-03-08T13:50:21;26.88;;;18.55;;
56999;SDS011;42891;50.006;21.964;2024-03-08T13:54:21;29.08;;;19.15;;
56999;SDS011;42891;50.006;21.964;2024-03-08T13:58:21;28.40;;;19.90;;
56999;SDS011;42891;50.006;21.964;2024-03-08T14:02:22;30.98;;;21.40;;
56999;SDS011;42891;50.006;21.964;2024-03-08T14:06:24;30.23;;;20.75;;
56999;SDS011;42891;50.006;21.964;2024-03-08T14:10:25;32.05;;;20.95;;
56999;SDS011;42891;50.006;21.964;2024-03-08T14:14:27;30.00;;;19.33;;
56999;SDS011;42891;50.006;21.964;2024-03-08T14:18:27;28.00;;;20.30;;
56999;SDS011;42891;50.006;21.964;2024-03-08T14:22:29;27.77;;;18.67;;
56999;SDS011;42891;50.006;21.964;2024-03-08T14:26:31;29.25;;;19.23;;
56999;SDS011;42891;50.006;21.964;2024-03-08T14:30:32;24.67;;;17.83;;
56999;SDS011;42891;50.006;21.964;2024-03-08T14:34:32;30.90;;;20.02;;
56999;SDS011;42891;50.006;21.964;2024-03-08T14:38:33;31.15;;;19.00;;
56999;SDS011;42891;50.006;21.964;2024-03-08T14:42:34;28.80;;;18.48;;
56999;SDS011;42891;50.006;21.964;2024-03-08T14:46:35;33.20;;;22.13;;
56999;SDS011;42891;50.006;21.964;2024-03-08T14:50:35;39.72;;;25.63;;
56999;SDS011;42891;50.006;21.964;2024-03-08T14:54:36;35.70;;;19.45;;
56999;SDS011;42891;50.006;21.964;2024-03-08T14:58:37;29.87;;;18.80;;
56999;SDS011;42891;50.006;21.964;2024-03-08T15:02:37;28.10;;;18.67;;
56999;SDS011;42891;50.006;21.964;2024-03-08T15:06:39;28.15;;;18.52;;
56999;SDS011;42891;50.006;21.964;2024-03-08T15:10:42;36.40;;;20.35;;
56999;SDS011;42891;50.006;21.964;2024-03-08T15:14:44;35.40;;;19.90;;
56999;SDS011;42891;50.006;21.964;2024-03-08T15:18:45;30.03;;;19.03;;
56999;SDS011;42891;50.006;21.964;2024-03-08T15:22:48;30.02;;;19.58;;
56999;SDS011;42891;50.006;21.964;2024-03-08T15:26:48;32.93;;;19.40;;
56999;SDS011;42891;50.006;21.964;2024-03-08T15:30:51;26.83;;;17.20;;
56999;SDS011;42891;50.006;21.964;2024-03-08T15:34:54;41.00;;;21.90;;
56999;SDS011;42891;50.006;21.964;2024-03-08T15:38:55;35.90;;;22.07;;
56999;SDS011;42891;50.006;21.964;2024-03-08T15:42:59;36.60;;;20.73;;
56999;SDS011;42891;50.006;21.964;2024-03-08T15:46:59;40.35;;;21.88;;
56999;SDS011;42891;50.006;21.964;2024-03-08T15:51:01;37.13;;;21.17;;
56999;SDS011;42891;50.006;21.964;2024-03-08T15:55:05;32.55;;;20.52;;
56999;SDS011;42891;50.006;21.964;2024-03-08T15:59:07;32.35;;;19.48;;
56999;SDS011;42891;50.006;21.964;2024-03-08T16:03:07;31.88;;;19.27;;
56999;SDS011;42891;50.006;21.964;2024-03-08T16:07:11;34.10;;;19.98;;
56999;SDS011;42891;50.006;21.964;2024-03-08T16:11:11;38.63;;;23.20;;
56999;SDS011;42891;50.006;21.964;2024-03-08T16:15:11;56.03;;;35.03;;
56999;SDS011;42891;50.006;21.964;2024-03-08T16:19:12;45.65;;;24.48;;
56999;SDS011;42891;50.006;21.964;2024-03-08T16:23:13;41.38;;;23.27;;
56999;SDS011;42891;50.006;21.964;2024-03-08T16:27:17;39.45;;;22.33;;
56999;SDS011;42891;50.006;21.964;2024-03-08T16:31:17;44.37;;;22.67;;
56999;SDS011;42891;50.006;21.964;2024-03-08T16:35:18;38.72;;;21.70;;
56999;SDS011;42891;50.006;21.964;2024-03-08T16:39:19;51.90;;;26.08;;
56999;SDS011;42891;50.006;21.964;2024-03-08T16:43:20;43.92;;;22.30;;
56999;SDS011;42891;50.006;21.964;2024-03-08T16:47:21;46.78;;;28.42;;
56999;SDS011;42891;50.006;21.964;2024-03-08T16:51:22;66.00;;;32.92;;
56999;SDS011;42891;50.006;21.964;2024-03-08T16:55:23;61.40;;;29.07;;
56999;SDS011;42891;50.006;21.964;2024-03-08T16:59:23;52.90;;;25.35;;
56999;SDS011;42891;50.006;21.964;2024-03-08T17:03:23;50.58;;;27.15;;
56999;SDS011;42891;50.006;21.964;2024-03-08T17:07:24;48.10;;;26.90;;
56999;SDS011;42891;50.006;21.964;2024-03-08T17:11:24;51.17;;;26.03;;
56999;SDS011;42891;50.006;21.964;2024-03-08T17:15:25;49.60;;;26.25;;
56999;SDS011;42891;50.006;21.964;2024-03-08T17:19:27;70.55;;;34.13;;
56999;SDS011;42891;50.006;21.964;2024-03-08T17:23:27;84.82;;;38.90;;
56999;SDS011;42891;50.006;21.964;2024-03-08T17:27:27;59.37;;;30.60;;
56999;SDS011;42891;50.006;21.964;2024-03-08T17:31:28;61.97;;;32.40;;
56999;SDS011;42891;50.006;21.964;2024-03-08T17:35:29;54.38;;;29.23;;
56999;SDS011;42891;50.006;21.964;2024-03-08T17:39:32;61.67;;;32.70;;
56999;SDS011;42891;50.006;21.964;2024-03-08T17:43:33;58.60;;;32.78;;
56999;SDS011;42891;50.006;21.964;2024-03-08T17:47:34;75.38;;;39.67;;
56999;SDS011;42891;50.006;21.964;2024-03-08T17:51:34;86.27;;;44.93;;
56999;SDS011;42891;50.006;21.964;2024-03-08T17:55:35;84.80;;;44.35;;
56999;SDS011;42891;50.006;21.964;2024-03-08T17:59:37;82.75;;;43.95;;
56999;SDS011;42891;50.006;21.964;2024-03-08T18:03:37;77.63;;;43.00;;
56999;SDS011;42891;50.006;21.964;2024-03-08T18:07:38;79.03;;;41.88;;
56999;SDS011;42891;50.006;21.964;2024-03-08T18:11:39;84.55;;;46.60;;
56999;SDS011;42891;50.006;21.964;2024-03-08T18:15:40;75.47;;;42.97;;
56999;SDS011;42891;50.006;21.964;2024-03-08T18:19:40;85.78;;;45.67;;
56999;SDS011;42891;50.006;21.964;2024-03-08T18:23:40;78.53;;;41.72;;
56999;SDS011;42891;50.006;21.964;2024-03-08T18:27:44;78.90;;;43.55;;
56999;SDS011;42891;50.006;21.964;2024-03-08T18:31:47;79.35;;;44.38;;
56999;SDS011;42891;50.006;21.964;2024-03-08T18:35:48;88.38;;;46.58;;
56999;SDS011;42891;50.006;21.964;2024-03-08T18:39:48;83.53;;;44.83;;
56999;SDS011;42891;50.006;21.964;2024-03-08T18:43:50;78.88;;;42.78;;
56999;SDS011;42891;50.006;21.964;2024-03-08T18:47:51;75.93;;;40.87;;
56999;SDS011;42891;50.006;21.964;2024-03-08T18:51:52;80.43;;;40.92;;
56999;SDS011;42891;50.006;21.964;2024-03-08T18:55:54;82.07;;;41.08;;
56999;SDS011;42891;50.006;21.964;2024-03-08T18:59:54;93.63;;;47.80;;
56999;SDS011;42891;50.006;21.964;2024-03-08T19:03:54;92.13;;;45.80;;
56999;SDS011;42891;50.006;21.964;2024-03-08T19:07:55;90.85;;;44.85;;
56999;SDS011;42891;50.006;21.964;2024-03-08T19:11:56;87.80;;;44.05;;
56999;SDS011;42891;50.006;21.964;2024-03-08T19:15:57;102.07;;;49.97;;
56999;SDS011;42891;50.006;21.964;2024-03-08T19:19:57;95.88;;;48.78;;
56999;SDS011;42891;50.006;21.964;2024-03-08T19:23:57;109.17;;;51.10;;
56999;SDS011;42891;50.006;21.964;2024-03-08T19:27:58;132.18;;;63.70;;
56999;SDS011;42891;50.006;21.964;2024-03-08T19:32:00;221.25;;;106.25;;
56999;SDS011;42891;50.006;21.964;2024-03-08T19:36:01;225.82;;;109.82;;
56999;SDS011;42891;50.006;21.964;2024-03-08T19:40:08;277.60;;;129.60;;
56999;SDS011;42891;50.006;21.964;2024-03-08T19:44:19;266.73;;;125.82;;
56999;SDS011;42891;50.006;21.964;2024-03-08T19:48:19;250.23;;;123.80;;
56999;SDS011;42891;50.006;21.964;2024-03-08T19:52:20;274.98;;;132.70;;
56999;SDS011;42891;50.006;21.964;2024-03-08T19:56:21;228.50;;;114.78;;
56999;SDS011;42891;50.006;21.964;2024-03-08T20:00:22;195.82;;;97.03;;
56999;SDS011;42891;50.006;21.964;2024-03-08T20:04:33;178.15;;;90.40;;
56999;SDS011;42891;50.006;21.964;2024-03-08T20:08:33;181.45;;;87.75;;
56999;SDS011;42891;50.006;21.964;2024-03-08T20:12:36;214.88;;;103.38;;
56999;SDS011;42891;50.006;21.964;2024-03-08T20:16:39;178.23;;;89.70;;
56999;SDS011;42891;50.006;21.964;2024-03-08T20:20:40;199.82;;;97.60;;
56999;SDS011;42891;50.006;21.964;2024-03-08T20:24:42;210.57;;;104.82;;
56999;SDS011;42891;50.006;21.964;2024-03-08T20:28:43;249.40;;;116.13;;
56999;SDS011;42891;50.006;21.964;2024-03-08T20:32:43;215.38;;;102.47;;
56999;SDS011;42891;50.006;21.964;2024-03-08T20:36:46;237.05;;;108.72;;
56999;SDS011;42891;50.006;21.964;2024-03-08T20:40:46;199.60;;;93.47;;
56999;SDS011;42891;50.006;21.964;2024-03-08T20:44:47;278.48;;;131.23;;
56999;SDS011;42891;50.006;21.964;2024-03-08T20:48:47;223.32;;;108.75;;
56999;SDS011;42891;50.006;21.964;2024-03-08T20:52:49;243.45;;;117.15;;
56999;SDS011;42891;50.006;21.964;2024-03-08T20:56:50;245.80;;;120.07;;
56999;SDS011;42891;50.006;21.964;2024-03-08T21:00:51;259.90;;;123.78;;
56999;SDS011;42891;50.006;21.964;2024-03-08T21:04:54;281.90;;;137.07;;
56999;SDS011;42891;50.006;21.964;2024-03-08T21:08:55;249.00;;;124.00;;
56999;SDS011;42891;50.006;21.964;2024-03-08T21:12:58;256.83;;;120.05;;
56999;SDS011;42891;50.006;21.964;2024-03-08T21:16:59;264.40;;;123.22;;
56999;SDS011;42891;50.006;21.964;2024-03-08T21:20:59;226.05;;;107.70;;
56999;SDS011;42891;50.006;21.964;2024-03-08T21:25:01;215.32;;;104.43;;
56999;SDS011;42891;50.006;21.964;2024-03-08T21:29:03;193.13;;;97.63;;
56999;SDS011;42891;50.006;21.964;2024-03-08T21:33:04;190.88;;;96.85;;
56999;SDS011;42891;50.006;21.964;2024-03-08T21:37:07;181.13;;;94.85;;
56999;SDS011;42891;50.006;21.964;2024-03-08T21:41:07;200.50;;;101.70;;
56999;SDS011;42891;50.006;21.964;2024-03-08T21:45:12;190.13;;;95.70;;
56999;SDS011;42891;50.006;21.964;2024-03-08T21:49:16;197.95;;;102.63;;
56999;SDS011;42891;50.006;21.964;2024-03-08T21:53:16;170.38;;;88.00;;
56999;SDS011;42891;50.006;21.964;2024-03-08T21:57:17;187.52;;;90.95;;
56999;SDS011;42891;50.006;21.964;2024-03-08T22:01:20;188.93;;;96.70;;
56999;SDS011;42891;50.006;21.964;2024-03-08T22:05:20;197.50;;;97.82;;
56999;SDS011;42891;50.006;21.964;2024-03-08T22:09:23;279.00;;;123.25;;
56999;SDS011;42891;50.006;21.964;2024-03-08T22:13:23;487.40;;;192.70;;
56999;SDS011;42891;50.006;21.964;2024-03-08T22:17:24;361.23;;;137.35;;
56999;SDS011;42891;50.006;21.964;2024-03-08T22:21:25;356.67;;;139.93;;
56999;SDS011;42891;50.006;21.964;2024-03-08T22:25:26;255.55;;;105.85;;
56999;SDS011;42891;50.006;21.964;2024-03-08T22:29:27;232.25;;;99.05;;
56999;SDS011;42891;50.006;21.964;2024-03-08T22:33:27;194.27;;;92.13;;
56999;SDS011;42891;50.006;21.964;2024-03-08T22:37:28;179.88;;;85.03;;
56999;SDS011;42891;50.006;21.964;2024-03-08T22:41:28;179.63;;;85.28;;
56999;SDS011;42891;50.006;21.964;2024-03-08T22:45:30;177.35;;;85.38;;
56999;SDS011;42891;50.006;21.964;2024-03-08T22:49:32;159.82;;;77.35;;
56999;SDS011;42891;50.006;21.964;2024-03-08T22:53:33;150.45;;;75.25;;
56999;SDS011;42891;50.006;21.964;2024-03-08T22:57:35;147.40;;;74.45;;
56999;SDS011;42891;50.006;21.964;2024-03-08T23:01:38;144.18;;;70.47;;
56999;SDS011;42891;50.006;21.964;2024-03-08T23:05:38;142.20;;;69.32;;
56999;SDS011;42891;50.006;21.964;2024-03-08T23:09:40;148.50;;;74.68;;
56999;SDS011;42891;50.006;21.964;2024-03-08T23:13:42;149.10;;;74.22;;
56999;SDS011;42891;50.006;21.964;2024-03-08T23:17:46;146.43;;;74.97;;